createdAt,value
2022-12-28T00:01:27.223Z,4.30
2022-12-28T00:03:29.209Z,4.60
2022-12-28T00:05:31.120Z,4.38
2022-12-28T00:07:32.987Z,4.13
2022-12-28T00:09:35.866Z,3.88
2022-12-28T00:11:38.209Z,4.75
2022-12-28T00:13:40.159Z,4.55
2022-12-28T00:15:42.029Z,4.60
2022-12-28T00:17:43.902Z,4.22
2022-12-28T00:19:45.931Z,4.47
2022-12-28T00:21:47.977Z,4.47
2022-12-28T00:23:54.378Z,4.15
2022-12-28T00:26:10.423Z,4.53
2022-12-28T00:28:12.358Z,4.05
2022-12-28T00:30:14.498Z,4.32
2022-12-28T00:32:16.397Z,4.28
2022-12-28T00:34:18.295Z,4.35
2022-12-28T00:36:20.225Z,4.32
2022-12-28T00:38:22.440Z,3.80
2022-12-28T00:40:24.434Z,4.15
2022-12-28T00:42:27.366Z,4.03
2022-12-28T00:44:30.162Z,4.30
2022-12-28T00:46:33.035Z,4.45
2022-12-28T00:48:34.974Z,4.13
2022-12-28T00:50:36.932Z,4.90
2022-12-28T00:52:38.911Z,4.07
2022-12-28T00:54:41.828Z,3.85
2022-12-28T00:56:43.776Z,4.75
2022-12-28T00:58:45.885Z,4.43
2022-12-28T01:00:49.557Z,4.03
2022-12-28T01:02:51.686Z,4.45
2022-12-28T01:04:56.112Z,4.28
2022-12-28T01:06:58.998Z,4.55
2022-12-28T01:09:00.888Z,4.78
2022-12-28T01:11:12.309Z,4.05
2022-12-28T01:13:14.182Z,3.90
2022-12-28T01:15:16.163Z,4.32
2022-12-28T01:17:18.033Z,4.53
2022-12-28T01:19:23.401Z,4.47
2022-12-28T01:21:29.421Z,3.85
2022-12-28T01:23:31.279Z,3.72
2022-12-28T01:25:34.051Z,3.42
2022-12-28T01:27:36.012Z,4.47
2022-12-28T01:29:37.883Z,4.18
2022-12-28T01:31:39.820Z,4.18
2022-12-28T01:33:42.253Z,4.03
2022-12-28T01:35:44.076Z,4.22
2022-12-28T01:37:45.904Z,4.25
2022-12-28T01:39:47.849Z,4.78
2022-12-28T01:41:50.052Z,4.40
2022-12-28T01:43:54.972Z,4.38
2022-12-28T01:45:56.980Z,4.57
2022-12-28T01:47:58.973Z,4.38
2022-12-28T01:50:08.744Z,4.35
2022-12-28T01:52:20.000Z,3.70
2022-12-28T01:54:26.649Z,5.32
2022-12-28T01:56:31.670Z,4.30
2022-12-28T01:58:35.734Z,4.70
2022-12-28T02:00:37.757Z,4.30
2022-12-28T02:02:44.655Z,4.28
2022-12-28T02:04:47.775Z,4.65
2022-12-28T02:06:49.762Z,4.88
2022-12-28T02:09:19.775Z,5.55
2022-12-28T02:11:22.059Z,5.32
2022-12-28T02:13:25.664Z,4.68
2022-12-28T02:15:27.793Z,4.78
2022-12-28T02:17:30.030Z,5.28
2022-12-28T02:19:46.216Z,4.50
2022-12-28T02:22:01.181Z,4.93
2022-12-28T02:24:24.239Z,4.75
2022-12-28T02:26:52.576Z,4.45
2022-12-28T02:29:22.474Z,5.10
2022-12-28T02:31:39.947Z,4.60
2022-12-28T02:33:58.932Z,4.47
2022-12-28T02:36:18.251Z,5.32
2022-12-28T02:38:40.621Z,4.65
2022-12-28T02:41:14.289Z,4.78
2022-12-28T02:43:17.477Z,4.90
2022-12-28T02:45:56.314Z,4.95
2022-12-28T02:48:30.405Z,4.40
2022-12-28T02:50:46.102Z,4.28
2022-12-28T02:52:57.028Z,5.05
2022-12-28T02:55:38.744Z,4.85
2022-12-28T02:57:58.735Z,5.82
2022-12-28T03:00:18.170Z,5.15
2022-12-28T03:02:49.345Z,5.10
2022-12-28T03:05:02.275Z,5.25
2022-12-28T03:07:28.125Z,4.97
2022-12-28T03:09:44.826Z,5.40
2022-12-28T03:12:15.520Z,4.88
2022-12-28T03:14:24.979Z,5.03
2022-12-28T03:17:06.686Z,4.97
2022-12-28T03:19:29.455Z,5.40
2022-12-28T03:21:52.206Z,4.53
2022-12-28T03:24:15.437Z,4.72
2022-12-28T03:26:41.021Z,5.38
2022-12-28T03:29:03.106Z,4.95
2022-12-28T03:31:13.582Z,4.93
2022-12-28T03:33:15.680Z,4.68
2022-12-28T03:35:22.828Z,5.28
2022-12-28T03:37:43.598Z,4.97
2022-12-28T03:39:53.253Z,5.95
2022-12-28T03:42:24.951Z,5.45
2022-12-28T03:44:33.129Z,5.05
2022-12-28T03:46:46.619Z,5.78
2022-12-28T03:48:50.837Z,5.15
2022-12-28T03:50:55.212Z,5.47
2022-12-28T03:52:59.455Z,5.47
2022-12-28T03:55:01.437Z,5.57
2022-12-28T03:57:03.502Z,5.10
2022-12-28T03:59:05.369Z,5.38
2022-12-28T04:01:07.360Z,5.85
2022-12-28T04:03:09.372Z,5.65
2022-12-28T04:05:11.315Z,5.18
2022-12-28T04:07:13.208Z,5.40
2022-12-28T04:09:15.344Z,5.28
2022-12-28T04:11:18.248Z,5.68
2022-12-28T04:13:20.222Z,6.13
2022-12-28T04:15:22.041Z,5.40
2022-12-28T04:17:24.976Z,5.72
2022-12-28T04:19:26.898Z,4.72
2022-12-28T04:21:28.805Z,5.20
2022-12-28T04:23:31.977Z,5.60
2022-12-28T04:25:33.869Z,5.03
2022-12-28T04:27:35.708Z,6.30
2022-12-28T04:29:37.629Z,5.65
2022-12-28T04:31:39.567Z,5.75
2022-12-28T04:33:41.516Z,4.78
2022-12-28T04:35:44.389Z,4.97
2022-12-28T04:37:47.437Z,5.10
2022-12-28T04:39:55.272Z,4.93
2022-12-28T04:41:59.086Z,5.10
2022-12-28T04:44:01.063Z,4.88
2022-12-28T04:46:05.867Z,5.38
2022-12-28T04:48:07.877Z,5.65
2022-12-28T04:50:10.869Z,5.68
2022-12-28T04:52:12.903Z,6.00
2022-12-28T04:54:15.807Z,5.10
2022-12-28T04:56:19.873Z,5.72
2022-12-28T04:58:21.719Z,5.35
2022-12-28T05:00:23.647Z,5.75
2022-12-28T05:02:26.588Z,6.40
2022-12-28T05:04:29.600Z,5.80
2022-12-28T05:06:31.585Z,5.70
2022-12-28T05:08:35.362Z,5.72
2022-12-28T05:10:38.238Z,6.18
2022-12-28T05:12:40.162Z,5.50
2022-12-28T05:14:42.469Z,5.25
2022-12-28T05:16:44.382Z,5.60
2022-12-28T05:18:46.350Z,5.85
2022-12-28T05:20:48.318Z,6.30
2022-12-28T05:22:50.252Z,5.20
2022-12-28T05:24:52.131Z,5.63
2022-12-28T05:26:55.295Z,6.15
2022-12-28T05:28:57.480Z,5.30
2022-12-28T05:31:05.279Z,5.32
2022-12-28T05:33:07.203Z,5.82
2022-12-28T05:35:09.732Z,6.00
2022-12-28T05:37:15.731Z,6.05
2022-12-28T05:39:22.129Z,5.28
2022-12-28T05:41:28.663Z,6.80
2022-12-28T05:43:30.708Z,7.15
2022-12-28T05:45:32.938Z,8.18
2022-12-28T05:47:34.857Z,8.25
2022-12-28T05:49:36.670Z,7.90
2022-12-28T05:51:40.151Z,8.70
2022-12-28T05:53:42.957Z,9.13
2022-12-28T05:55:44.898Z,8.77
2022-12-28T05:57:46.856Z,8.43
2022-12-28T05:59:48.772Z,8.15
2022-12-28T06:01:50.974Z,6.95
2022-12-28T06:03:57.439Z,6.97
2022-12-28T06:06:11.048Z,6.60
2022-12-28T06:08:16.060Z,7.43
2022-12-28T06:10:20.197Z,6.57
2022-12-28T06:12:22.109Z,7.30
2022-12-28T06:14:24.138Z,7.97
2022-12-28T06:16:31.535Z,7.07
2022-12-28T06:18:34.141Z,8.38
2022-12-28T06:20:35.965Z,7.90
2022-12-28T06:22:37.930Z,8.02
2022-12-28T06:24:40.832Z,7.97
2022-12-28T06:26:42.955Z,8.05
2022-12-28T06:28:45.789Z,7.13
2022-12-28T06:30:52.320Z,6.18
2022-12-28T06:32:57.094Z,5.93
2022-12-28T06:34:59.962Z,6.22
2022-12-28T06:37:04.412Z,5.90
2022-12-28T06:39:09.262Z,6.10
2022-12-28T06:41:15.115Z,6.03
2022-12-28T06:43:18.274Z,6.15
2022-12-28T06:45:20.254Z,5.78
2022-12-28T06:47:22.201Z,5.90
2022-12-28T06:49:26.123Z,6.25
2022-12-28T06:51:30.427Z,6.25
2022-12-28T06:53:35.330Z,5.95
2022-12-28T06:55:37.324Z,5.80
2022-12-28T06:57:39.292Z,6.38
2022-12-28T06:59:41.260Z,5.90
2022-12-28T07:01:46.973Z,6.28
2022-12-28T07:03:51.419Z,6.50
2022-12-28T07:05:53.336Z,6.10
2022-12-28T07:07:56.258Z,6.38
2022-12-28T07:10:00.178Z,6.70
2022-12-28T07:12:02.144Z,6.80
2022-12-28T07:14:06.225Z,6.28
2022-12-28T07:16:12.030Z,6.30
2022-12-28T07:18:15.068Z,6.45
2022-12-28T07:20:17.171Z,6.07
2022-12-28T07:22:19.079Z,6.82
2022-12-28T07:24:23.069Z,6.05
2022-12-28T07:26:28.205Z,6.82
2022-12-28T07:28:30.171Z,6.30
2022-12-28T07:30:32.177Z,6.10
2022-12-28T07:32:37.434Z,6.40
2022-12-28T07:34:39.416Z,6.55
2022-12-28T07:36:41.655Z,5.82
2022-12-28T07:38:44.393Z,6.32
2022-12-28T07:40:47.313Z,6.63
2022-12-28T07:42:49.254Z,7.13
2022-12-28T07:44:51.269Z,7.40
2022-12-28T07:46:54.156Z,8.15
2022-12-28T07:48:57.353Z,7.82
2022-12-28T07:51:16.438Z,6.82
2022-12-28T07:53:22.044Z,7.07
2022-12-28T07:55:25.128Z,6.50
2022-12-28T07:57:27.072Z,6.30
2022-12-28T07:59:31.152Z,6.50
2022-12-28T08:01:35.727Z,7.20
2022-12-28T08:03:38.539Z,6.00
2022-12-28T08:05:40.530Z,6.38
2022-12-28T08:07:42.419Z,6.97
2022-12-28T08:09:44.399Z,7.95
2022-12-28T08:11:49.065Z,8.68
2022-12-28T08:13:53.665Z,8.25
2022-12-28T08:15:57.956Z,8.02
2022-12-28T08:18:00.932Z,7.82
2022-12-28T08:20:03.206Z,8.85
2022-12-28T08:22:05.275Z,9.60
2022-12-28T08:24:09.086Z,8.93
2022-12-28T08:26:19.751Z,9.35
2022-12-28T08:28:21.814Z,8.95
2022-12-28T08:30:23.699Z,8.27
2022-12-28T08:32:25.625Z,7.93
2022-12-28T08:34:27.680Z,6.30
2022-12-28T08:36:30.339Z,7.20
2022-12-28T08:38:33.260Z,7.03
2022-12-28T08:40:35.202Z,6.25
2022-12-28T08:42:37.067Z,6.30
2022-12-28T08:44:38.930Z,6.90
2022-12-28T08:46:41.539Z,6.35
2022-12-28T08:48:44.287Z,7.10
2022-12-28T08:50:46.239Z,5.75
2022-12-28T08:52:48.256Z,6.70
2022-12-28T08:54:50.344Z,5.97
2022-12-28T08:56:53.692Z,5.70
2022-12-28T08:58:57.828Z,6.05
2022-12-28T09:01:20.191Z,5.63
2022-12-28T09:03:22.201Z,6.13
2022-12-28T09:05:24.073Z,6.32
2022-12-28T09:07:25.985Z,6.35
2022-12-28T09:09:29.957Z,6.28
2022-12-28T09:11:31.878Z,6.75
2022-12-28T09:13:36.965Z,6.05
2022-12-28T09:15:39.975Z,6.45
2022-12-28T09:17:42.004Z,7.68
2022-12-28T09:19:43.942Z,5.55
2022-12-28T09:21:49.249Z,5.93
2022-12-28T09:23:52.580Z,6.13
2022-12-28T09:25:55.520Z,5.10
2022-12-28T09:27:59.453Z,5.60
2022-12-28T09:30:01.691Z,5.80
2022-12-28T09:32:03.735Z,5.30
2022-12-28T09:36:37.321Z,5.47
2022-12-28T09:38:39.282Z,5.65
2022-12-28T09:40:41.534Z,5.38
2022-12-28T09:42:43.961Z,5.93
2022-12-28T09:44:57.622Z,6.38
2022-12-28T09:47:10.552Z,5.53
2022-12-28T09:49:16.778Z,6.95
2022-12-28T09:51:24.432Z,6.63
2022-12-28T09:53:34.870Z,5.78
2022-12-28T09:55:40.272Z,5.82
2022-12-28T09:57:49.168Z,5.32
2022-12-28T09:59:53.545Z,5.43
2022-12-28T10:01:59.255Z,5.53
2022-12-28T10:04:02.434Z,5.72
2022-12-28T10:06:12.500Z,4.97
2022-12-28T10:08:19.382Z,5.25
2022-12-28T10:10:23.922Z,5.00
2022-12-28T10:12:30.286Z,5.18
2022-12-28T10:14:36.045Z,5.45
2022-12-28T10:16:42.847Z,5.55
2022-12-28T10:18:50.562Z,6.25
2022-12-28T10:20:55.239Z,5.15
2022-12-28T10:22:59.738Z,5.82
2022-12-28T10:25:01.657Z,5.55
2022-12-28T10:27:06.853Z,5.45
2022-12-28T10:29:15.186Z,4.88
2022-12-28T10:31:34.099Z,4.85
2022-12-28T10:33:41.786Z,5.07
2022-12-28T10:35:50.709Z,5.82
2022-12-28T10:38:00.073Z,5.30
2022-12-28T10:40:07.019Z,5.85
2022-12-28T10:42:21.132Z,5.60
2022-12-28T10:44:39.352Z,5.47
2022-12-28T10:46:56.541Z,5.55
2022-12-28T10:49:03.582Z,4.70
2022-12-28T10:51:16.267Z,5.10
2022-12-28T10:53:40.620Z,5.60
2022-12-28T10:55:43.637Z,5.68
2022-12-28T10:58:18.993Z,7.53
2022-12-28T11:00:23.370Z,5.90
2022-12-28T11:02:30.492Z,5.10
2022-12-28T11:04:32.544Z,4.95
2022-12-28T11:06:37.160Z,6.28
2022-12-28T11:08:40.035Z,5.88
2022-12-28T11:10:42.155Z,6.47
2022-12-28T11:12:45.712Z,5.82
2022-12-28T11:14:48.933Z,5.90
2022-12-28T11:16:53.481Z,6.18
2022-12-28T11:18:57.676Z,5.47
2022-12-28T11:20:59.664Z,5.28
2022-12-28T11:23:06.997Z,6.28
2022-12-28T11:25:09.448Z,7.15
2022-12-28T11:27:16.551Z,8.32
2022-12-28T11:29:20.672Z,6.00
2022-12-28T11:31:31.376Z,6.10
2022-12-28T11:33:42.534Z,7.55
2022-12-28T11:35:57.499Z,8.68
2022-12-28T11:38:03.962Z,7.63
2022-12-28T11:40:06.438Z,6.93
2022-12-28T11:44:31.108Z,6.32
2022-12-28T11:46:40.713Z,6.22
2022-12-28T11:48:42.695Z,6.13
2022-12-28T11:50:53.114Z,5.97
2022-12-28T11:52:55.066Z,6.25
2022-12-28T11:55:03.064Z,6.15
2022-12-28T11:57:05.724Z,5.97
2022-12-28T11:59:23.964Z,6.00
2022-12-28T12:01:30.015Z,6.22
2022-12-28T12:03:59.577Z,5.57
2022-12-28T12:06:01.520Z,5.97
2022-12-28T12:08:16.759Z,6.50
2022-12-28T12:10:30.776Z,5.63
2022-12-28T12:12:35.986Z,6.32
2022-12-28T12:14:45.969Z,5.93
2022-12-28T12:17:10.109Z,6.65
2022-12-28T12:19:24.012Z,6.18
2022-12-28T12:21:46.075Z,6.38
2022-12-28T12:23:57.037Z,5.78
2022-12-28T12:26:10.786Z,5.85
2022-12-28T12:28:33.729Z,5.90
2022-12-28T12:30:36.614Z,5.63
2022-12-28T12:33:02.526Z,6.50
2022-12-28T12:35:07.755Z,6.07
2022-12-28T12:37:43.663Z,5.90
2022-12-28T12:39:48.551Z,5.97
2022-12-28T12:42:04.768Z,6.60
2022-12-28T12:44:06.662Z,5.43
2022-12-28T12:46:39.360Z,5.70
2022-12-28T12:49:15.879Z,5.90
2022-12-28T12:51:37.567Z,7.03
2022-12-28T12:53:51.142Z,6.50
2022-12-28T12:56:12.187Z,6.28
2022-12-28T12:58:22.023Z,6.20
2022-12-28T13:00:24.730Z,7.00
2022-12-28T13:02:45.569Z,6.57
2022-12-28T13:04:49.462Z,6.60
2022-12-28T13:06:59.439Z,6.25
2022-12-28T13:09:05.890Z,7.35
2022-12-28T13:11:15.446Z,6.30
2022-12-28T13:13:33.523Z,7.25
2022-12-28T13:15:36.827Z,7.63
2022-12-28T13:17:38.841Z,6.10
2022-12-28T13:19:40.890Z,6.78
2022-12-28T13:21:45.859Z,6.47
2022-12-28T13:23:48.952Z,6.15
2022-12-28T13:25:55.191Z,6.50
2022-12-28T13:28:03.118Z,6.85
2022-12-28T13:30:18.267Z,7.03
2022-12-28T13:32:38.724Z,7.03
2022-12-28T13:34:49.710Z,6.50
2022-12-28T13:37:00.752Z,7.03
2022-12-28T13:39:10.710Z,7.20
2022-12-28T13:41:26.042Z,6.78
2022-12-28T13:44:01.512Z,6.47
2022-12-28T13:46:09.267Z,7.32
2022-12-28T13:48:11.863Z,7.32
2022-12-28T13:50:18.669Z,6.90
2022-12-28T13:52:52.517Z,6.80
2022-12-28T13:54:59.142Z,6.45
2022-12-28T13:57:28.331Z,6.60
2022-12-28T13:59:23.945Z,7.32
2022-12-28T14:01:32.306Z,7.13
2022-12-28T14:03:41.413Z,6.97
2022-12-28T14:05:50.905Z,6.68
2022-12-28T14:07:55.200Z,7.05
2022-12-28T14:09:57.559Z,6.55
2022-12-28T14:12:00.707Z,7.07
2022-12-28T14:14:04.213Z,7.32
2022-12-28T14:16:07.771Z,7.22
2022-12-28T14:18:15.313Z,7.53
2022-12-28T14:20:18.466Z,7.63
2022-12-28T14:22:37.815Z,7.07
2022-12-28T14:25:04.404Z,7.25
2022-12-28T14:27:06.375Z,7.05
2022-12-28T14:29:21.533Z,6.95
2022-12-28T14:31:32.387Z,5.70
2022-12-28T14:33:50.641Z,6.75
2022-12-28T14:35:58.274Z,6.38
2022-12-28T14:38:01.201Z,7.00
2022-12-28T14:40:05.563Z,8.05
2022-12-28T14:42:20.570Z,6.03
2022-12-28T14:44:36.858Z,7.15
2022-12-28T14:46:41.464Z,6.18
2022-12-28T14:48:45.188Z,5.90
2022-12-28T14:50:59.280Z,6.97
2022-12-28T14:53:21.439Z,7.75
2022-12-28T14:55:33.427Z,7.22
2022-12-28T14:57:44.476Z,6.85
2022-12-28T15:00:11.134Z,6.40
2022-12-28T15:02:52.077Z,6.15
2022-12-28T15:05:00.435Z,6.93
2022-12-28T15:07:04.683Z,5.40
2022-12-28T15:09:08.626Z,5.63
2022-12-28T15:11:14.480Z,5.65
2022-12-28T15:13:18.061Z,6.25
2022-12-28T15:15:20.875Z,5.22
2022-12-28T15:17:26.791Z,5.47
2022-12-28T15:19:31.744Z,5.72
2022-12-28T15:21:33.691Z,6.13
2022-12-28T15:23:35.726Z,6.65
2022-12-28T15:25:37.739Z,5.78
2022-12-28T15:27:40.657Z,5.90
2022-12-28T15:32:04.964Z,6.57
2022-12-28T15:34:07.953Z,6.15
2022-12-28T15:36:21.443Z,6.55
2022-12-28T15:38:23.377Z,6.07
2022-12-28T15:40:25.351Z,7.15
2022-12-28T15:42:27.584Z,6.47
2022-12-28T15:44:29.644Z,7.00
2022-12-28T15:46:32.035Z,6.70
2022-12-28T15:48:35.272Z,7.32
2022-12-28T15:50:37.223Z,7.18
2022-12-28T15:52:39.265Z,7.43
2022-12-28T15:54:46.750Z,5.95
2022-12-28T15:56:54.482Z,6.85
2022-12-28T15:58:58.786Z,6.57
2022-12-28T16:01:01.013Z,7.00
2022-12-28T16:03:03.441Z,6.22
2022-12-28T16:05:07.027Z,6.63
2022-12-28T16:07:10.180Z,6.60
2022-12-28T16:09:13.369Z,7.03
2022-12-28T16:11:17.860Z,7.47
2022-12-28T16:13:19.861Z,9.00
2022-12-28T16:15:22.945Z,6.72
2022-12-28T16:17:24.929Z,5.57
2022-12-28T16:19:26.914Z,7.38
2022-12-28T16:21:29.870Z,6.95
2022-12-28T16:23:33.853Z,7.63
2022-12-28T16:25:37.962Z,6.80
2022-12-28T16:27:39.927Z,6.32
2022-12-28T16:29:42.055Z,7.05
2022-12-28T16:31:45.278Z,6.95
2022-12-28T16:33:47.258Z,7.30
2022-12-28T16:35:51.884Z,7.65
2022-12-28T16:37:57.911Z,7.10
2022-12-28T16:40:00.001Z,7.47
2022-12-28T16:42:02.024Z,7.15
2022-12-28T16:44:12.515Z,7.30
2022-12-28T16:46:14.918Z,6.95
2022-12-28T16:48:17.092Z,7.40
2022-12-28T16:50:19.068Z,6.80
2022-12-28T16:52:21.039Z,7.93
2022-12-28T16:54:26.404Z,8.52
2022-12-28T16:56:28.381Z,13.00
2022-12-28T16:58:36.457Z,9.10
2022-12-28T17:00:38.443Z,9.57
2022-12-28T17:02:41.457Z,9.00
2022-12-28T17:04:44.175Z,7.60
2022-12-28T17:06:47.056Z,7.13
2022-12-28T17:08:50.966Z,7.50
2022-12-28T17:10:53.002Z,6.35
2022-12-28T17:12:54.933Z,6.55
2022-12-28T17:15:03.219Z,6.65
2022-12-28T17:17:08.248Z,6.45
2022-12-28T17:19:12.350Z,7.47
2022-12-28T17:21:15.395Z,6.90
2022-12-28T17:23:18.354Z,6.28
2022-12-28T17:25:21.396Z,7.20
2022-12-28T17:27:23.309Z,6.28
2022-12-28T17:29:25.262Z,7.05
2022-12-28T17:31:29.333Z,6.35
2022-12-28T17:33:37.111Z,6.57
2022-12-28T17:35:41.512Z,6.32
2022-12-28T17:37:46.804Z,6.72
2022-12-28T17:39:48.850Z,6.43
2022-12-28T17:41:50.890Z,6.20
2022-12-28T17:43:56.784Z,6.80
2022-12-28T17:46:01.869Z,7.40
2022-12-28T17:48:04.632Z,6.95
2022-12-28T17:50:07.547Z,7.22
2022-12-28T17:52:09.549Z,6.57
2022-12-28T17:54:14.569Z,6.63
2022-12-28T17:56:16.943Z,7.25
2022-12-28T17:58:18.926Z,7.80
2022-12-28T18:00:22.199Z,6.90
2022-12-28T18:02:24.524Z,6.38
2022-12-28T18:04:26.946Z,7.22
2022-12-28T18:06:29.092Z,7.50
2022-12-28T18:08:31.283Z,7.00
2022-12-28T18:10:34.473Z,6.70
2022-12-28T18:12:36.511Z,6.90
2022-12-28T18:14:38.556Z,7.90
2022-12-28T18:16:40.739Z,6.45
2022-12-28T18:18:43.454Z,7.03
2022-12-28T18:20:46.209Z,6.80
2022-12-28T18:22:50.255Z,6.47
2022-12-28T18:24:53.865Z,6.70
2022-12-28T18:26:55.936Z,7.15
2022-12-28T18:28:58.290Z,7.13
2022-12-28T18:31:02.782Z,7.30
2022-12-28T18:33:05.085Z,7.35
2022-12-28T18:35:08.053Z,7.65
2022-12-28T18:37:16.123Z,6.28
2022-12-28T18:39:18.380Z,6.97
2022-12-28T18:41:21.547Z,7.22
2022-12-28T18:43:24.338Z,7.03
2022-12-28T18:45:26.369Z,6.50
2022-12-28T18:47:33.159Z,7.63
2022-12-28T18:49:40.186Z,6.22
2022-12-28T18:51:44.929Z,6.53
2022-12-28T18:53:47.580Z,6.47
2022-12-28T18:56:04.269Z,6.10
2022-12-28T18:58:07.587Z,6.10
2022-12-28T19:00:14.341Z,6.22
2022-12-28T19:02:19.773Z,5.55
2022-12-28T19:04:22.566Z,6.05
2022-12-28T19:06:26.918Z,6.40
2022-12-28T19:08:29.159Z,6.80
2022-12-28T19:10:31.210Z,6.13
2022-12-28T19:12:33.522Z,6.32
2022-12-28T19:14:36.981Z,6.28
2022-12-28T19:16:40.092Z,5.05
2022-12-28T19:18:42.179Z,5.88
2022-12-28T19:20:44.838Z,5.93
2022-12-28T19:22:47.535Z,6.00
2022-12-28T19:24:49.656Z,6.45
2022-12-28T19:26:53.584Z,5.65
2022-12-28T19:28:55.916Z,5.50
2022-12-28T19:31:04.811Z,6.40
2022-12-28T19:33:07.681Z,6.15
2022-12-28T19:35:09.983Z,5.78
2022-12-28T19:37:11.975Z,6.90
2022-12-28T19:39:15.396Z,6.25
2022-12-28T19:41:19.189Z,6.68
2022-12-28T19:43:21.773Z,6.22
2022-12-28T19:45:24.883Z,6.57
2022-12-28T19:47:28.088Z,5.90
2022-12-28T19:49:30.372Z,5.82
2022-12-28T19:51:34.498Z,5.78
2022-12-28T19:53:37.579Z,6.38
2022-12-28T19:55:40.880Z,5.72
2022-12-28T19:57:43.249Z,6.43
2022-12-28T19:59:47.083Z,5.63
2022-12-28T20:01:49.860Z,6.53
2022-12-28T20:04:00.231Z,6.40
2022-12-28T20:06:18.416Z,6.70
2022-12-28T20:08:20.350Z,6.22
2022-12-28T20:10:23.601Z,6.45
2022-12-28T20:12:25.775Z,6.32
2022-12-28T20:14:28.480Z,6.57
2022-12-28T20:16:35.005Z,6.72
2022-12-28T20:18:37.034Z,6.22
2022-12-28T20:21:09.286Z,6.82
2022-12-28T20:23:02.558Z,5.97
2022-12-28T20:25:14.942Z,5.32
2022-12-28T20:27:16.841Z,6.28
2022-12-28T20:29:19.860Z,6.07
2022-12-28T20:31:23.829Z,6.60
2022-12-28T20:33:25.933Z,5.78
2022-12-28T20:35:30.132Z,6.15
2022-12-28T20:37:32.377Z,6.35
2022-12-28T20:39:35.557Z,6.30
2022-12-28T20:41:56.599Z,6.45
2022-12-28T20:44:05.681Z,6.75
2022-12-28T20:46:12.233Z,6.13
2022-12-28T20:48:16.602Z,6.28
2022-12-28T20:50:19.037Z,5.30
2022-12-28T20:52:21.142Z,5.80
2022-12-28T20:54:24.115Z,5.35
2022-12-28T20:56:27.553Z,5.07
2022-12-28T20:58:29.677Z,6.38
2022-12-28T21:00:39.756Z,5.70
2022-12-28T21:02:42.099Z,5.80
2022-12-28T21:04:44.319Z,6.57
2022-12-28T21:06:46.322Z,5.75
2022-12-28T21:08:48.707Z,5.57
2022-12-28T21:10:51.868Z,5.70
2022-12-28T21:12:55.105Z,5.70
2022-12-28T21:14:58.043Z,6.05
2022-12-28T21:17:11.809Z,6.30
2022-12-28T21:20:11.386Z,6.22
2022-12-28T21:25:04.425Z,5.70
2022-12-28T21:27:26.609Z,6.25
2022-12-28T21:29:31.201Z,6.95
2022-12-28T21:31:33.353Z,6.60
2022-12-28T21:33:41.544Z,7.63
2022-12-28T21:35:44.560Z,6.60
2022-12-28T21:37:46.502Z,6.25
2022-12-28T21:39:49.468Z,6.22
2022-12-28T21:41:51.562Z,7.30
2022-12-28T21:43:53.492Z,6.45
2022-12-28T21:46:02.618Z,6.43
2022-12-28T21:48:05.158Z,7.03
2022-12-28T21:50:09.137Z,7.43
2022-12-28T21:52:11.057Z,6.20
2022-12-28T21:54:24.986Z,6.97
2022-12-28T21:56:27.861Z,6.65
2022-12-28T21:58:29.854Z,6.25
2022-12-28T22:00:54.095Z,6.20
2022-12-28T22:03:17.980Z,5.68
2022-12-28T22:05:38.795Z,5.90
2022-12-28T22:07:44.469Z,6.40
2022-12-28T22:10:08.942Z,5.90
2022-12-28T22:12:33.150Z,6.30
2022-12-28T22:14:36.148Z,6.30
2022-12-28T22:16:38.133Z,6.20
2022-12-28T22:21:05.448Z,6.22
2022-12-28T22:23:09.023Z,5.93
2022-12-28T22:25:15.804Z,5.65
2022-12-28T22:27:17.758Z,6.57
2022-12-28T22:29:24.418Z,6.10
2022-12-28T22:31:26.497Z,6.13
2022-12-28T22:33:28.569Z,5.72
2022-12-28T22:35:30.561Z,6.68
2022-12-28T22:37:34.523Z,6.80
2022-12-28T22:39:39.982Z,6.13
2022-12-28T22:41:45.062Z,6.15
2022-12-28T22:43:53.918Z,6.00
2022-12-28T22:46:02.422Z,5.85
2022-12-28T22:48:04.618Z,5.80
2022-12-28T22:50:08.259Z,6.15
2022-12-28T22:52:10.217Z,6.00
2022-12-28T22:54:12.296Z,6.00
2022-12-28T22:56:21.062Z,6.57
2022-12-28T22:58:23.247Z,6.22
2022-12-28T23:00:25.279Z,5.47
2022-12-28T23:02:29.651Z,6.05
2022-12-28T23:04:37.767Z,6.20
2022-12-28T23:06:39.693Z,5.75
2022-12-28T23:08:41.944Z,5.85
2022-12-28T23:11:31.821Z,5.55
2022-12-28T23:13:33.717Z,5.47
2022-12-28T23:15:35.585Z,5.65
2022-12-28T23:17:37.566Z,5.18
2022-12-28T23:19:58.324Z,5.20
2022-12-28T23:22:19.089Z,5.05
2022-12-28T23:24:40.714Z,5.85
2022-12-28T23:27:01.275Z,5.28
2022-12-28T23:29:03.399Z,5.03
2022-12-28T23:31:05.707Z,5.45
2022-12-28T23:33:09.226Z,5.55
2022-12-28T23:35:11.177Z,5.38
2022-12-28T23:37:14.157Z,4.53
2022-12-28T23:39:16.474Z,5.65
2022-12-28T23:41:36.907Z,4.90
2022-12-28T23:43:40.925Z,4.80
2022-12-28T23:45:42.891Z,5.35
2022-12-28T23:47:45.517Z,5.30
2022-12-28T23:49:48.537Z,5.20
2022-12-28T23:51:51.499Z,5.20
2022-12-28T23:53:53.549Z,5.38
2022-12-28T23:55:58.483Z,5.60
2022-12-28T23:58:00.379Z,5.75
